Time;durP1;ratioP1;P1;durP2;ratioP2;P2;SDS_P1;SDS_P2;PMS_P1;PMS_P2;Temp;Humidity;BMP_temperature;BMP_pressure;BME280_temperature;BME280_humidity;BME280_pressure;Samples;Min_cycle;Max_cycle;Signal;HPM_P1;HPM_P2
2021/11/14 00:02:20;;;;;;;15.03;7.00;;;8.80;99.90;;;;;;5012543;28;20057;-87
2021/11/14 00:04:49;;;;;;;15.35;6.10;;;8.90;99.90;;;;;;5009181;28;20052;-88
2021/11/14 00:07:18;;;;;;;14.43;7.15;;;8.90;99.90;;;;;;5020592;28;20049;-87
2021/11/14 00:09:47;;;;;;;16.92;7.10;;;8.90;99.90;;;;;;5010382;28;20049;-87
2021/11/14 00:12:16;;;;;;;16.30;7.32;;;8.90;99.90;;;;;;5042692;28;20038;-87
2021/11/14 00:14:48;;;;;;;18.07;7.30;;;8.90;99.90;;;;;;5038704;28;20135;-87
2021/11/14 00:17:19;;;;;;;12.57;7.18;;;9.00;99.90;;;;;;5013669;28;20056;-88
2021/11/14 00:19:48;;;;;;;15.07;7.43;;;8.90;99.90;;;;;;5020834;28;20053;-87
2021/11/14 00:22:27;;;;;;;16.95;6.57;;;8.80;99.90;;;;;;5018719;28;20060;-86
2021/11/14 00:24:57;;;;;;;14.77;7.38;;;8.80;99.90;;;;;;5012254;28;20112;-88
2021/11/14 00:27:26;;;;;;;21.80;8.10;;;8.90;99.90;;;;;;5031618;28;20128;-88
2021/11/14 00:29:57;;;;;;;13.95;6.45;;;8.90;99.90;;;;;;5029381;28;20037;-88
2021/11/14 00:32:27;;;;;;;16.70;7.80;;;8.80;99.90;;;;;;5017044;28;20053;-87
2021/11/14 00:34:56;;;;;;;13.45;6.32;;;8.70;99.90;;;;;;5007376;28;20075;-87
2021/11/14 00:37:25;;;;;;;19.40;7.65;;;8.70;99.90;;;;;;5010259;28;20097;-87
2021/11/14 00:39:55;;;;;;;17.43;8.13;;;8.80;99.90;;;;;;5010264;28;20041;-89
2021/11/14 00:42:24;;;;;;;13.23;7.22;;;8.70;99.90;;;;;;5013421;28;20052;-87
2021/11/14 00:44:53;;;;;;;15.98;6.97;;;8.80;99.90;;;;;;5015426;28;20103;-88
2021/11/14 00:47:23;;;;;;;14.95;7.78;;;8.80;99.90;;;;;;5020171;28;20046;-87
2021/11/14 00:49:52;;;;;;;15.73;6.47;;;8.70;99.90;;;;;;5037661;28;20053;-87
2021/11/14 00:52:20;;;;;;;13.70;6.53;;;8.60;99.90;;;;;;5019446;28;20479;-87
2021/11/14 00:54:50;;;;;;;18.40;7.18;;;8.70;99.90;;;;;;5018131;28;20057;-88
2021/11/14 00:57:22;;;;;;;15.10;7.57;;;8.60;99.90;;;;;;5041031;28;20052;-87
2021/11/14 01:00:14;;;;;;;14.63;6.60;;;8.70;99.90;;;;;;5035829;28;20041;-88
2021/11/14 01:02:46;;;;;;;14.50;7.18;;;8.70;99.90;;;;;;5028411;28;20040;-88
2021/11/14 01:12:15;;;;;;;15.18;6.32;;;8.70;99.90;;;;;;4979964;28;20049;-88
2021/11/14 01:14:44;;;;;;;13.88;6.22;;;8.70;99.90;;;;;;4988034;28;20058;-87
2021/11/14 01:17:14;;;;;;;17.02;6.72;;;8.70;99.90;;;;;;4962579;28;20080;-88
2021/11/14 01:19:49;;;;;;;16.33;5.83;;;8.80;99.90;;;;;;4953245;28;20055;-88
2021/11/14 01:22:19;;;;;;;13.88;6.68;;;8.70;99.90;;;;;;4969668;28;20080;-87
2021/11/14 01:24:48;;;;;;;16.02;7.07;;;8.70;99.90;;;;;;4976058;28;20042;-87
2021/11/14 01:27:20;;;;;;;15.90;6.47;;;8.80;99.90;;;;;;4961954;28;20039;-87
2021/11/14 01:29:50;;;;;;;17.25;7.20;;;8.70;99.90;;;;;;4957184;28;20097;-88
2021/11/14 01:32:23;;;;;;;14.80;6.73;;;8.80;99.90;;;;;;4958068;28;20052;-87
2021/11/14 01:34:56;;;;;;;15.18;6.97;;;8.70;99.90;;;;;;4958510;28;20060;-88
2021/11/14 01:37:25;;;;;;;14.40;6.72;;;8.70;99.90;;;;;;4970119;28;20068;-88
2021/11/14 01:39:54;;;;;;;17.67;7.07;;;8.80;99.90;;;;;;4961913;28;20065;-87
2021/11/14 01:42:23;;;;;;;16.08;7.07;;;8.80;99.90;;;;;;4966721;28;20050;-87
2021/11/14 01:44:52;;;;;;;13.73;7.03;;;8.80;99.90;;;;;;4986345;28;20091;-88
2021/11/14 01:47:21;;;;;;;14.25;6.72;;;8.70;99.90;;;;;;5037365;28;20071;-88
2021/11/14 01:49:49;;;;;;;14.48;7.13;;;8.70;99.90;;;;;;5033251;28;20052;-88
2021/11/14 01:52:22;;;;;;;14.05;6.82;;;8.80;99.90;;;;;;5012520;28;20046;-88
2021/11/14 01:54:52;;;;;;;15.02;6.50;;;8.80;99.90;;;;;;5038848;28;20132;-88
2021/11/14 01:57:22;;;;;;;15.50;7.33;;;8.90;99.90;;;;;;5022022;28;20314;-87
2021/11/14 01:59:52;;;;;;;14.27;6.68;;;8.80;99.90;;;;;;5018931;28;20480;-88
2021/11/14 02:02:22;;;;;;;13.55;5.88;;;8.70;99.90;;;;;;5013885;28;20499;-87
2021/11/14 02:04:51;;;;;;;17.25;7.07;;;8.70;99.90;;;;;;5033817;28;20082;-88
2021/11/14 02:07:21;;;;;;;16.08;7.30;;;8.80;99.90;;;;;;5012782;28;20049;-88
2021/11/14 02:09:51;;;;;;;18.50;6.67;;;8.70;99.90;;;;;;5022110;28;20049;-87
2021/11/14 02:12:19;;;;;;;17.83;7.65;;;8.80;99.90;;;;;;5018631;28;20129;-88
2021/11/14 02:15:14;;;;;;;14.77;6.72;;;8.80;99.90;;;;;;5032147;28;20129;-88
2021/11/14 02:17:44;;;;;;;11.98;6.05;;;8.70;99.90;;;;;;5014895;28;20069;-85
2021/11/14 02:20:16;;;;;;;18.83;6.18;;;8.80;99.90;;;;;;5027526;28;20144;-88
2021/11/14 02:22:48;;;;;;;15.67;6.83;;;8.70;99.90;;;;;;5032839;28;20436;-88
2021/11/14 02:25:19;;;;;;;19.10;6.63;;;8.70;99.90;;;;;;5013965;28;20050;-88
2021/11/14 02:27:51;;;;;;;16.23;6.15;;;8.70;99.90;;;;;;5025209;28;20076;-88
2021/11/14 02:30:22;;;;;;;16.70;6.50;;;8.70;99.90;;;;;;5021844;28;20500;-89
2021/11/14 02:32:53;;;;;;;15.55;6.13;;;8.60;99.90;;;;;;5031006;28;20071;-87
2021/11/14 02:35:43;;;;;;;13.87;5.73;;;8.70;99.90;;;;;;5035088;28;20072;-87
2021/11/14 02:38:11;;;;;;;14.55;5.70;;;8.70;99.90;;;;;;5046034;28;20073;-87
2021/11/14 02:40:42;;;;;;;19.15;6.82;;;8.50;99.90;;;;;;5049678;28;20041;-90
2021/11/14 02:43:11;;;;;;;16.38;5.93;;;8.60;99.90;;;;;;5061617;28;20064;-89
2021/11/14 02:45:40;;;;;;;11.27;5.22;;;8.60;99.90;;;;;;5034741;28;20132;-89
2021/11/14 02:48:11;;;;;;;14.80;6.53;;;8.70;99.90;;;;;;5036730;28;20143;-89
2021/11/14 02:50:43;;;;;;;13.93;6.43;;;8.70;99.90;;;;;;5015084;28;20041;-88
2021/11/14 02:53:13;;;;;;;16.67;5.63;;;8.60;99.90;;;;;;5023450;28;20061;-88
2021/11/14 02:55:44;;;;;;;15.95;5.82;;;8.70;99.90;;;;;;5018069;28;20155;-88
2021/11/14 02:58:15;;;;;;;13.85;5.47;;;8.70;99.90;;;;;;5044370;28;20075;-87
2021/11/14 03:00:49;;;;;;;19.07;6.50;;;8.80;99.90;;;;;;5017684;28;20041;-88
2021/11/14 03:03:45;;;;;;;13.10;5.85;;;8.70;99.90;;;;;;5033766;28;20057;-87
2021/11/14 03:06:17;;;;;;;13.05;5.55;;;8.70;99.90;;;;;;5032537;28;20041;-88
2021/11/14 03:08:46;;;;;;;12.60;5.30;;;8.70;99.90;;;;;;5011013;28;20065;-88
2021/11/14 03:11:15;;;;;;;14.88;5.18;;;8.70;99.90;;;;;;5035041;28;20057;-88
2021/11/14 03:13:44;;;;;;;13.17;6.07;;;8.50;99.90;;;;;;5027749;28;20543;-87
2021/11/14 03:16:17;;;;;;;16.13;5.47;;;8.60;99.90;;;;;;5014425;28;20075;-86
2021/11/14 03:18:47;;;;;;;16.98;6.28;;;8.60;99.90;;;;;;5009495;28;20065;-87
2021/11/14 03:21:18;;;;;;;14.02;5.07;;;8.70;99.90;;;;;;5014723;28;20049;-88
2021/11/14 03:23:48;;;;;;;13.10;5.38;;;8.70;99.90;;;;;;5016039;28;20045;-88
2021/11/14 03:26:18;;;;;;;12.53;5.10;;;8.60;99.90;;;;;;5017500;28;20061;-87
2021/11/14 03:28:47;;;;;;;14.75;6.13;;;8.50;99.90;;;;;;5016140;28;20072;-87
2021/11/14 03:31:17;;;;;;;14.20;5.28;;;8.60;99.90;;;;;;5013848;28;20492;-87
2021/11/14 03:33:46;;;;;;;13.15;5.30;;;8.70;99.90;;;;;;5009032;28;20053;-88
2021/11/14 03:36:19;;;;;;;13.20;5.00;;;8.70;99.90;;;;;;5032347;28;20049;-88
2021/11/14 03:38:50;;;;;;;12.83;5.90;;;8.70;99.90;;;;;;5016865;28;20467;-87
2021/11/14 03:41:22;;;;;;;10.77;4.43;;;8.60;99.90;;;;;;5005768;28;20049;-87
2021/11/14 03:43:53;;;;;;;12.05;5.18;;;8.60;99.90;;;;;;5007898;28;20095;-87
2021/11/14 03:49:18;;;;;;;12.02;4.88;;;8.60;99.90;;;;;;5018621;28;20056;-87
2021/11/14 03:52:14;;;;;;;14.47;5.20;;;8.50;99.90;;;;;;5013906;28;20045;-87
2021/11/14 03:54:44;;;;;;;10.45;5.10;;;8.60;99.90;;;;;;5018326;28;20448;-87
2021/11/14 03:57:25;;;;;;;11.18;4.88;;;8.60;99.90;;;;;;5014820;28;20156;-88
2021/11/14 03:59:54;;;;;;;16.35;4.70;;;8.60;99.90;;;;;;5007544;28;20057;-87
2021/11/14 04:02:25;;;;;;;13.60;5.13;;;8.60;99.90;;;;;;5044069;28;20048;-88
2021/11/14 04:04:54;;;;;;;10.67;4.50;;;8.60;99.90;;;;;;5016473;28;20046;-88
2021/11/14 04:07:24;;;;;;;10.75;4.53;;;8.60;99.90;;;;;;5052279;28;20080;-87
2021/11/14 04:09:55;;;;;;;10.70;4.70;;;8.60;99.90;;;;;;5041271;28;20056;-87
2021/11/14 04:15:18;;;;;;;14.20;4.32;;;8.50;99.90;;;;;;5044199;28;20042;-88
2021/11/14 04:17:55;;;;;;;12.47;4.33;;;8.50;99.90;;;;;;5045039;28;20107;-87
2021/11/14 04:20:49;;;;;;;12.05;4.07;;;8.50;99.90;;;;;;5033481;28;20055;-87
2021/11/14 04:23:21;;;;;;;15.23;5.20;;;8.50;99.90;;;;;;5025450;28;20045;-87
2021/11/14 04:25:50;;;;;;;12.07;3.55;;;8.50;99.90;;;;;;5023767;28;20037;-87
2021/11/14 04:28:21;;;;;;;12.73;4.05;;;8.50;99.90;;;;;;5028949;28;20441;-87
2021/11/14 04:30:55;;;;;;;12.20;4.10;;;8.50;99.90;;;;;;5016438;28;20104;-87
2021/11/14 04:33:25;;;;;;;11.90;3.45;;;8.50;99.90;;;;;;5030763;28;20167;-87
2021/11/14 04:35:56;;;;;;;11.50;3.83;;;8.50;99.90;;;;;;5026235;28;20037;-88
2021/11/14 04:38:26;;;;;;;11.85;4.72;;;8.50;99.90;;;;;;5034409;28;20056;-88
2021/11/14 04:40:55;;;;;;;11.48;3.88;;;8.40;99.90;;;;;;5047877;28;20078;-87
2021/11/14 04:43:24;;;;;;;8.57;3.30;;;8.40;99.90;;;;;;5028802;28;20056;-86
2021/11/14 04:45:53;;;;;;;10.63;4.38;;;8.50;99.90;;;;;;5028750;28;20041;-84
2021/11/14 04:48:26;;;;;;;10.27;3.65;;;8.50;99.90;;;;;;5022388;28;20068;-88
2021/11/14 04:50:55;;;;;;;11.00;3.95;;;8.50;99.90;;;;;;5021854;28;20045;-89
2021/11/14 04:53:24;;;;;;;9.52;3.83;;;8.40;99.90;;;;;;5025586;28;20095;-89
2021/11/14 04:55:55;;;;;;;10.70;3.07;;;8.40;99.90;;;;;;5019321;28;20057;-89
2021/11/14 04:58:25;;;;;;;13.18;4.03;;;8.40;99.90;;;;;;5022085;28;20139;-89
2021/11/14 05:00:55;;;;;;;13.88;3.90;;;8.40;99.90;;;;;;5030770;28;20148;-88
2021/11/14 05:03:25;;;;;;;7.97;3.50;;;8.30;99.90;;;;;;5028738;28;20046;-89
2021/11/14 05:05:56;;;;;;;11.57;3.88;;;8.30;99.90;;;;;;5009530;28;20064;-89
2021/11/14 05:08:26;;;;;;;8.03;3.33;;;8.30;99.90;;;;;;5024049;28;20115;-89
2021/11/14 05:10:56;;;;;;;10.18;3.83;;;8.40;99.90;;;;;;5019526;28;20103;-89
2021/11/14 05:13:26;;;;;;;9.95;3.17;;;8.30;99.90;;;;;;5021391;28;20076;-88
2021/11/14 05:15:55;;;;;;;7.43;3.08;;;8.30;99.90;;;;;;5013759;28;20174;-88
2021/11/14 05:18:25;;;;;;;9.18;3.17;;;8.40;99.90;;;;;;5034209;28;20041;-87
2021/11/14 05:20:54;;;;;;;9.43;3.73;;;8.50;99.90;;;;;;5023811;28;20041;-88
2021/11/14 05:23:23;;;;;;;12.65;3.72;;;8.30;99.90;;;;;;5014699;28;20049;-88
2021/11/14 05:25:53;;;;;;;11.50;4.60;;;8.40;99.90;;;;;;5019049;28;20045;-88
2021/11/14 05:28:24;;;;;;;11.20;3.58;;;8.40;99.90;;;;;;5020445;28;20064;-90
2021/11/14 05:30:54;;;;;;;8.75;3.88;;;8.40;99.90;;;;;;5016691;28;20073;-88
2021/11/14 05:33:24;;;;;;;12.73;4.20;;;8.50;99.90;;;;;;5021990;28;20078;-88
2021/11/14 05:35:54;;;;;;;11.85;3.75;;;8.50;99.90;;;;;;5019096;28;20072;-88
2021/11/14 05:38:23;;;;;;;9.43;4.00;;;8.50;99.90;;;;;;5027297;28;20049;-88
2021/11/14 05:40:52;;;;;;;11.93;4.68;;;8.30;99.90;;;;;;5028997;28;20044;-88
2021/11/14 05:43:21;;;;;;;12.75;3.95;;;8.40;99.90;;;;;;5031765;28;20036;-88
2021/11/14 05:45:51;;;;;;;7.37;3.60;;;8.40;99.90;;;;;;5019685;28;20049;-88
2021/11/14 05:48:20;;;;;;;9.38;3.13;;;8.40;99.90;;;;;;5021559;28;20089;-88
2021/11/14 05:50:49;;;;;;;7.63;3.88;;;8.50;99.90;;;;;;5019466;28;20084;-88
2021/11/14 05:53:19;;;;;;;13.45;4.00;;;8.50;99.90;;;;;;5031237;28;20042;-88
2021/11/14 05:55:48;;;;;;;9.98;3.30;;;8.50;99.90;;;;;;5022840;28;20464;-88
2021/11/14 05:58:20;;;;;;;8.87;2.87;;;8.50;99.90;;;;;;5018032;28;20183;-87
2021/11/14 06:00:57;;;;;;;14.00;4.45;;;8.50;99.90;;;;;;5020710;28;20053;-88
2021/11/14 06:03:34;;;;;;;13.93;5.35;;;8.40;99.90;;;;;;5014946;28;20056;-88
2021/11/14 06:06:03;;;;;;;10.38;3.45;;;8.50;99.90;;;;;;5020756;28;20082;-88
2021/11/14 06:08:33;;;;;;;11.23;3.70;;;8.60;99.90;;;;;;5021017;28;20103;-86
2021/11/14 06:11:02;;;;;;;9.87;3.77;;;8.50;99.90;;;;;;5023552;28;20053;-88
2021/11/14 06:13:33;;;;;;;11.27;4.05;;;8.50;99.90;;;;;;5023525;28;20102;-88
2021/11/14 06:16:07;;;;;;;9.00;3.97;;;8.60;99.90;;;;;;5018947;28;20067;-89
2021/11/14 06:18:37;;;;;;;12.60;3.30;;;8.40;99.90;;;;;;5021894;28;20079;-88
2021/11/14 06:21:10;;;;;;;9.35;3.05;;;8.50;99.90;;;;;;5016669;28;20083;-89
2021/11/14 06:23:40;;;;;;;9.80;3.17;;;8.50;99.90;;;;;;5020210;28;20109;-89
2021/11/14 06:26:09;;;;;;;10.13;4.22;;;8.60;99.90;;;;;;5023217;28;20102;-88
2021/11/14 06:28:39;;;;;;;14.25;5.20;;;8.60;99.90;;;;;;5035192;28;20139;-88
2021/11/14 06:31:09;;;;;;;14.55;4.45;;;8.60;99.90;;;;;;5031802;28;20051;-88
2021/11/14 06:33:39;;;;;;;13.30;4.18;;;8.60;99.90;;;;;;5018488;28;20037;-88
2021/11/14 06:36:09;;;;;;;9.77;4.03;;;8.60;99.90;;;;;;5019893;28;20044;-88
2021/11/14 06:38:38;;;;;;;12.02;3.70;;;8.60;99.90;;;;;;5041728;28;20049;-90
2021/11/14 06:41:10;;;;;;;12.75;4.05;;;8.50;99.90;;;;;;5035324;28;20072;-89
2021/11/14 06:43:38;;;;;;;12.10;4.40;;;8.50;99.90;;;;;;5022503;28;20128;-88
2021/11/14 06:46:11;;;;;;;14.77;4.07;;;8.50;99.90;;;;;;5045975;28;20150;-89
2021/11/14 06:49:04;;;;;;;10.00;3.73;;;8.60;99.90;;;;;;5020563;28;20059;-91
2021/11/14 06:51:33;;;;;;;11.10;4.45;;;8.50;99.90;;;;;;5017769;28;20041;-88
2021/11/14 06:54:05;;;;;;;17.85;5.00;;;8.60;99.90;;;;;;5021386;28;20157;-90
2021/11/14 06:56:34;;;;;;;17.02;4.47;;;8.60;99.90;;;;;;5022721;28;20054;-89
2021/11/14 06:59:03;;;;;;;10.55;4.10;;;8.70;99.90;;;;;;5028325;28;20077;-87
2021/11/14 07:01:34;;;;;;;14.77;5.53;;;8.60;99.90;;;;;;5023901;28;20060;-88
2021/11/14 07:04:03;;;;;;;13.23;4.22;;;8.60;99.90;;;;;;5041690;28;20041;-88
2021/11/14 07:06:31;;;;;;;12.25;3.92;;;8.60;99.90;;;;;;5038127;28;20033;-89
2021/11/14 07:09:00;;;;;;;11.00;4.15;;;8.60;99.90;;;;;;5021461;28;20056;-89
2021/11/14 07:11:28;;;;;;;22.92;7.28;;;8.70;99.90;;;;;;5013285;28;20051;-89
2021/11/14 07:14:04;;;;;;;15.23;4.47;;;8.70;99.90;;;;;;5020426;28;20041;-88
2021/11/14 07:16:35;;;;;;;12.82;4.05;;;8.70;99.90;;;;;;5016383;28;20053;-89
2021/11/14 07:19:04;;;;;;;16.08;5.53;;;8.70;99.90;;;;;;5029368;28;20137;-89
2021/11/14 07:21:33;;;;;;;13.18;5.32;;;8.80;99.90;;;;;;5021736;28;20072;-89
2021/11/14 07:24:09;;;;;;;15.88;4.45;;;8.80;99.90;;;;;;5030796;28;20409;-88
2021/11/14 07:26:38;;;;;;;11.67;5.23;;;8.80;99.90;;;;;;5025075;28;20154;-84
2021/11/14 07:29:32;;;;;;;16.92;4.93;;;8.90;99.90;;;;;;5009332;28;20141;-87
2021/11/14 07:32:03;;;;;;;17.17;5.82;;;8.80;99.90;;;;;;5015702;28;20049;-91
2021/11/14 07:34:33;;;;;;;13.73;5.20;;;8.80;99.90;;;;;;5039255;28;20108;-93
2021/11/14 07:37:01;;;;;;;14.55;5.25;;;8.80;99.90;;;;;;5026737;28;20099;-87
2021/11/14 07:39:34;;;;;;;14.53;5.17;;;8.90;99.90;;;;;;5031273;28;20049;-88
2021/11/14 07:42:04;;;;;;;13.77;5.05;;;8.90;99.90;;;;;;5050726;28;20190;-86
2021/11/14 07:44:33;;;;;;;23.90;7.57;;;9.00;99.90;;;;;;5045238;28;20060;-84
2021/11/14 07:47:04;;;;;;;17.17;7.13;;;9.10;99.90;;;;;;5045895;28;20418;-90
2021/11/14 07:49:34;;;;;;;14.15;5.70;;;9.10;99.90;;;;;;5037525;28;20167;-88
2021/11/14 07:52:03;;;;;;;21.00;5.57;;;9.00;99.90;;;;;;5040091;28;20056;-90
2021/11/14 07:54:32;;;;;;;20.05;5.57;;;9.20;99.90;;;;;;5053539;28;20041;-88
2021/11/14 07:57:02;;;;;;;15.82;6.70;;;9.20;99.90;;;;;;5055680;28;20067;-90
2021/11/14 07:59:31;;;;;;;17.75;5.60;;;9.20;99.90;;;;;;5041049;28;20406;-85
2021/11/14 08:01:59;;;;;;;13.07;5.35;;;9.20;99.90;;;;;;5046026;28;20067;-89
2021/11/14 08:04:30;;;;;;;12.47;4.87;;;9.20;99.90;;;;;;5039886;28;20125;-83
2021/11/14 08:06:59;;;;;;;18.00;5.97;;;9.30;99.90;;;;;;5048500;28;20431;-84
2021/11/14 08:09:27;;;;;;;16.45;5.65;;;9.20;99.90;;;;;;5038321;28;20040;-87
2021/11/14 08:11:56;;;;;;;19.30;6.97;;;9.40;99.90;;;;;;5044755;28;20056;-85
2021/11/14 08:14:25;;;;;;;18.25;5.85;;;9.50;99.90;;;;;;5037569;28;20048;-85
2021/11/14 08:16:54;;;;;;;15.23;5.77;;;9.40;99.90;;;;;;5049135;28;20357;-83
2021/11/14 08:19:29;;;;;;;18.08;5.15;;;9.40;99.90;;;;;;5054766;28;20640;-85
2021/11/14 08:21:59;;;;;;;12.82;5.50;;;9.40;99.90;;;;;;5037674;28;20060;-84
2021/11/14 08:24:28;;;;;;;14.02;6.68;;;9.40;99.90;;;;;;5033690;28;20071;-80
2021/11/14 08:26:57;;;;;;;17.00;5.53;;;9.60;99.90;;;;;;5027741;28;20056;-82
2021/11/14 08:29:25;;;;;;;12.60;5.33;;;9.60;99.90;;;;;;5048401;28;20100;-86
2021/11/14 08:31:54;;;;;;;14.13;5.65;;;9.50;99.90;;;;;;5045242;28;20125;-85
2021/11/14 08:34:23;;;;;;;13.32;5.55;;;9.60;99.90;;;;;;5049412;28;20040;-86
2021/11/14 08:36:54;;;;;;;16.17;5.78;;;9.60;99.90;;;;;;5068608;28;20052;-86
2021/11/14 08:39:23;;;;;;;13.48;5.25;;;9.60;99.90;;;;;;5050611;28;20079;-85
2021/11/14 08:41:51;;;;;;;14.33;5.93;;;9.50;99.90;;;;;;5075127;28;20055;-87
2021/11/14 08:44:24;;;;;;;16.63;6.43;;;9.60;99.90;;;;;;5056722;28;20115;-86
2021/11/14 08:46:54;;;;;;;16.23;5.43;;;9.70;99.90;;;;;;5059477;28;20104;-88
2021/11/14 08:49:24;;;;;;;16.98;5.75;;;9.70;99.90;;;;;;5046370;28;20040;-91
2021/11/14 08:52:20;;;;;;;16.38;6.65;;;9.70;99.90;;;;;;5055887;28;20094;-86
2021/11/14 08:54:50;;;;;;;13.20;5.20;;;9.80;99.90;;;;;;5077527;28;20043;-90
2021/11/14 08:57:21;;;;;;;16.92;5.35;;;9.70;99.90;;;;;;5051736;28;20117;-88
2021/11/14 08:59:51;;;;;;;12.25;5.30;;;9.90;99.90;;;;;;5018320;28;20053;-87
2021/11/14 09:02:22;;;;;;;15.15;6.22;;;10.00;99.90;;;;;;5027388;28;20055;-86
2021/11/14 09:04:52;;;;;;;16.73;5.22;;;10.10;99.90;;;;;;5017674;28;20132;-83
2021/11/14 09:07:21;;;;;;;14.93;6.23;;;10.10;99.90;;;;;;5038969;28;20152;-83
2021/11/14 09:09:50;;;;;;;13.82;5.55;;;10.30;99.90;;;;;;5034788;28;20132;-82
2021/11/14 09:12:18;;;;;;;14.43;5.90;;;10.30;99.90;;;;;;5022256;28;20129;-82
2021/11/14 09:14:47;;;;;;;16.58;5.50;;;10.40;99.90;;;;;;5018435;28;20046;-83
2021/11/14 09:17:22;;;;;;;15.88;5.43;;;10.40;99.90;;;;;;5014070;28;20049;-87
2021/11/14 09:19:51;;;;;;;14.37;5.00;;;10.60;99.90;;;;;;5026914;28;20049;-87
2021/11/14 09:22:22;;;;;;;14.68;5.28;;;10.60;99.90;;;;;;5016656;28;20472;-87
2021/11/14 09:24:50;;;;;;;16.63;5.95;;;10.60;99.90;;;;;;5013986;28;20499;-85
2021/11/14 09:27:28;;;;;;;15.77;5.50;;;10.70;99.90;;;;;;5025370;28;20087;-86
2021/11/14 09:30:23;;;;;;;13.20;5.75;;;10.60;99.90;;;;;;5020432;28;20045;-85
2021/11/14 09:32:52;;;;;;;17.67;6.30;;;10.60;99.90;;;;;;5028219;28;20064;-86
2021/11/14 09:35:21;;;;;;;15.18;5.30;;;10.70;99.90;;;;;;5032887;28;20133;-85
2021/11/14 09:37:52;;;;;;;16.27;5.25;;;10.60;99.90;;;;;;5040211;28;20048;-85
2021/11/14 09:40:20;;;;;;;16.90;6.00;;;10.70;99.90;;;;;;5010743;28;20114;-85
2021/11/14 09:42:49;;;;;;;17.23;5.93;;;10.80;99.90;;;;;;5018470;28;20439;-85
2021/11/14 09:45:17;;;;;;;12.57;4.60;;;10.90;99.90;;;;;;5022519;28;20507;-86
2021/11/14 09:47:46;;;;;;;17.27;4.93;;;10.90;99.90;;;;;;5009040;28;20049;-86
2021/11/14 09:50:15;;;;;;;16.35;5.90;;;10.80;99.90;;;;;;5016981;28;20049;-86
2021/11/14 09:52:44;;;;;;;15.55;5.28;;;10.80;99.90;;;;;;5026412;28;20094;-85
2021/11/14 09:55:17;;;;;;;13.38;4.72;;;10.80;99.90;;;;;;5022027;28;20127;-85
2021/11/14 09:57:47;;;;;;;12.70;4.40;;;10.70;99.90;;;;;;5030328;28;20052;-86
2021/11/14 10:00:42;;;;;;;14.20;4.72;;;10.70;99.90;;;;;;5025272;28;20041;-86
2021/11/14 10:03:11;;;;;;;12.60;4.97;;;10.80;99.90;;;;;;5053594;28;20083;-87
2021/11/14 10:05:40;;;;;;;12.73;4.60;;;10.80;99.90;;;;;;5041976;28;20055;-86
2021/11/14 10:08:11;;;;;;;16.00;4.95;;;10.90;99.90;;;;;;5056643;28;20189;-86
2021/11/14 10:10:47;;;;;;;9.97;3.83;;;11.00;99.90;;;;;;5046287;28;20072;-86
2021/11/14 10:13:18;;;;;;;11.35;4.57;;;10.90;99.90;;;;;;5033010;28;20049;-86
2021/11/14 10:15:51;;;;;;;13.85;5.13;;;10.90;99.90;;;;;;5055813;28;20072;-86
2021/11/14 10:18:22;;;;;;;10.43;4.40;;;11.10;99.90;;;;;;5034025;28;20577;-86
2021/11/14 10:20:54;;;;;;;11.55;3.33;;;11.10;99.90;;;;;;5034977;28;20045;-86
2021/11/14 10:23:23;;;;;;;14.70;4.77;;;11.10;99.90;;;;;;5037024;28;20060;-86
2021/11/14 10:25:55;;;;;;;13.25;4.70;;;10.90;99.90;;;;;;5045913;28;20051;-86
2021/11/14 10:28:28;;;;;;;12.73;4.45;;;10.90;99.90;;;;;;5052287;28;20490;-86
2021/11/14 10:30:57;;;;;;;10.10;4.43;;;11.00;99.90;;;;;;5051693;28;20076;-86
2021/11/14 10:33:27;;;;;;;10.55;4.10;;;11.00;99.90;;;;;;5042459;28;20049;-87
2021/11/14 10:36:00;;;;;;;6.67;3.13;;;11.10;99.90;;;;;;5047169;28;20463;-87
2021/11/14 10:38:33;;;;;;;11.80;3.60;;;11.20;99.90;;;;;;5064858;28;20040;-88
2021/11/14 10:41:09;;;;;;;9.85;3.63;;;11.10;99.90;;;;;;5044864;28;20044;-89
2021/11/14 10:44:28;;;;;;;8.60;3.63;;;11.10;99.90;;;;;;5034187;28;20051;-87
2021/11/14 10:47:08;;;;;;;7.90;3.63;;;11.10;99.90;;;;;;5033838;28;20146;-88
2021/11/14 10:49:37;;;;;;;8.87;3.37;;;11.20;99.90;;;;;;5029661;28;20048;-88
2021/11/14 10:52:07;;;;;;;8.38;3.55;;;11.30;99.90;;;;;;5054176;28;20079;-86
2021/11/14 10:54:36;;;;;;;12.73;3.88;;;11.40;99.90;;;;;;5054055;28;20123;-84
2021/11/14 10:57:08;;;;;;;8.93;3.30;;;11.40;99.90;;;;;;5018842;28;20542;-87
2021/11/14 10:59:48;;;;;;;9.07;3.85;;;11.40;99.90;;;;;;5011316;28;20133;-89
2021/11/14 11:02:19;;;;;;;8.43;3.53;;;11.50;99.90;;;;;;5022645;28;20049;-89
2021/11/14 11:04:48;;;;;;;8.73;3.53;;;11.50;99.90;;;;;;5009016;28;20122;-88
2021/11/14 11:07:16;;;;;;;6.82;3.15;;;11.60;99.90;;;;;;5034794;28;20049;-88
2021/11/14 11:09:45;;;;;;;9.52;3.42;;;11.50;99.90;;;;;;5045330;28;20148;-88
2021/11/14 11:12:20;;;;;;;7.93;3.50;;;11.70;99.90;;;;;;5016219;28;20045;-90
2021/11/14 11:15:10;;;;;;;7.70;3.27;;;11.70;99.90;;;;;;5025108;28;20059;-90
2021/11/14 11:17:47;;;;;;;8.80;3.58;;;11.80;99.90;;;;;;5043117;28;20053;-92
2021/11/14 11:20:19;;;;;;;8.52;3.42;;;11.70;99.90;;;;;;5019353;28;20100;-91
2021/11/14 11:22:54;;;;;;;6.85;2.92;;;11.70;99.90;;;;;;5018327;28;20147;-90
2021/11/14 11:25:35;;;;;;;7.72;3.88;;;11.80;99.90;;;;;;5020967;28;20048;-93
2021/11/14 11:28:08;;;;;;;8.97;3.50;;;11.80;99.90;;;;;;5030978;28;20060;-88
2021/11/14 11:30:42;;;;;;;7.10;3.28;;;11.90;99.90;;;;;;5019135;28;20053;-92
2021/11/14 11:33:42;;;;;;;8.70;3.28;;;12.00;99.90;;;;;;5029583;28;20061;-94
2021/11/14 11:36:12;;;;;;;7.07;3.00;;;12.10;99.90;;;;;;5020913;28;20053;-89
2021/11/14 11:38:43;;;;;;;8.40;3.33;;;12.20;99.90;;;;;;5017790;28;20099;-89
2021/11/14 11:41:15;;;;;;;6.20;3.00;;;12.20;99.90;;;;;;5025176;28;20115;-89
2021/11/14 11:43:49;;;;;;;7.57;3.15;;;12.20;99.90;;;;;;5017533;28;20064;-86
2021/11/14 11:46:21;;;;;;;7.00;3.55;;;12.30;99.90;;;;;;5025963;28;20507;-87
2021/11/14 11:48:57;;;;;;;7.63;3.13;;;12.20;99.90;;;;;;5021273;28;20260;-85
2021/11/14 11:51:31;;;;;;;7.43;3.08;;;12.10;99.90;;;;;;5029268;28;20036;-85
2021/11/14 11:54:04;;;;;;;7.33;2.60;;;12.20;99.90;;;;;;5025267;28;20573;-85
2021/11/14 11:56:39;;;;;;;5.82;2.40;;;12.20;99.90;;;;;;5001608;28;20129;-84
2021/11/14 11:59:15;;;;;;;4.97;2.47;;;12.10;99.90;;;;;;4999907;28;20400;-85
2021/11/14 12:01:48;;;;;;;4.65;2.25;;;12.20;99.90;;;;;;5002829;28;20582;-84
2021/11/14 12:04:20;;;;;;;6.38;3.08;;;11.90;99.90;;;;;;5006058;28;20423;-84
2021/11/14 12:06:54;;;;;;;6.07;2.57;;;11.90;99.90;;;;;;4999681;28;20833;-82
2021/11/14 12:09:26;;;;;;;5.57;2.90;;;12.00;99.90;;;;;;4999852;28;20411;-84
2021/11/14 12:11:56;;;;;;;7.57;2.83;;;12.10;99.90;;;;;;4992180;28;20075;-82
2021/11/14 12:14:30;;;;;;;6.38;2.58;;;12.30;99.90;;;;;;5010952;28;20050;-82
2021/11/14 12:17:02;;;;;;;5.32;2.83;;;12.30;99.90;;;;;;5015528;28;20084;-85
2021/11/14 12:19:33;;;;;;;6.37;3.17;;;12.10;99.90;;;;;;4994622;28;20053;-86
2021/11/14 12:22:05;;;;;;;5.13;2.75;;;12.10;99.90;;;;;;4995087;28;20056;-86
2021/11/14 12:24:51;;;;;;;8.93;3.25;;;12.00;99.90;;;;;;5011861;28;20100;-85
2021/11/14 12:27:24;;;;;;;7.57;2.50;;;12.00;99.90;;;;;;4997259;28;20080;-86
2021/11/14 12:30:05;;;;;;;4.78;2.75;;;12.10;99.90;;;;;;5002497;28;20045;-85
2021/11/14 12:32:42;;;;;;;8.00;3.57;;;12.20;99.90;;;;;;5009552;28;20160;-85
2021/11/14 12:35:17;;;;;;;5.68;2.88;;;12.10;99.90;;;;;;5016985;28;20060;-84
2021/11/14 12:37:47;;;;;;;6.03;3.20;;;12.00;99.90;;;;;;5021124;28;20136;-85
2021/11/14 12:40:22;;;;;;;7.07;2.80;;;12.00;99.90;;;;;;5020390;28;20460;-85
2021/11/14 12:42:51;;;;;;;6.80;3.30;;;11.90;99.90;;;;;;5001684;28;20656;-85
2021/11/14 12:45:21;;;;;;;8.07;3.30;;;11.90;99.90;;;;;;5000109;28;20049;-85
2021/11/14 12:47:50;;;;;;;6.05;3.10;;;11.90;99.90;;;;;;4998309;28;20068;-87
2021/11/14 12:50:23;;;;;;;5.88;2.97;;;11.80;99.90;;;;;;5016758;28;20054;-86
2021/11/14 12:53:07;;;;;;;9.05;3.00;;;11.60;99.90;;;;;;5016868;28;20049;-87
2021/11/14 12:55:37;;;;;;;5.80;3.00;;;11.60;99.90;;;;;;5004335;28;20060;-87
2021/11/14 12:58:11;;;;;;;5.57;2.87;;;11.60;99.90;;;;;;5011396;28;20850;-86
2021/11/14 13:00:44;;;;;;;6.68;3.45;;;11.60;99.90;;;;;;5031151;28;20516;-86
2021/11/14 13:03:23;;;;;;;5.68;2.70;;;11.80;99.90;;;;;;5018722;28;20045;-87
2021/11/14 13:05:55;;;;;;;6.88;3.03;;;11.70;99.90;;;;;;5016248;28;20503;-86
2021/11/14 13:08:30;;;;;;;6.25;2.92;;;11.70;99.90;;;;;;5011667;28;20041;-86
2021/11/14 13:11:01;;;;;;;5.93;2.60;;;11.70;99.90;;;;;;5021568;28;20136;-86
2021/11/14 13:13:36;;;;;;;5.47;3.08;;;11.70;99.90;;;;;;5011982;28;20551;-86
2021/11/14 13:16:15;;;;;;;7.07;2.85;;;11.80;99.90;;;;;;5016638;28;20131;-86
2021/11/14 13:18:45;;;;;;;7.00;2.90;;;11.80;99.90;;;;;;5032583;28;20475;-87
2021/11/14 13:21:16;;;;;;;6.60;2.60;;;11.90;99.90;;;;;;5017838;28;20140;-87
2021/11/14 13:23:55;;;;;;;4.83;2.43;;;11.80;99.90;;;;;;5032484;28;20077;-85